sensor_id;sensor_type;location;lat;lon;timestamp;pressure;altitude;pressure_sealevel;temperature;humidity
58534;BME280;44109;52.398;7.024;2023-10-19T00:00:15;99321.59;;;10.52;100.00
58534;BME280;44109;52.398;7.024;2023-10-19T00:02:49;99321.13;;;10.64;100.00
58534;BME280;44109;52.398;7.024;2023-10-19T00:05:20;99326.69;;;10.64;100.00
58534;BME280;44109;52.398;7.024;2023-10-19T00:07:47;99341.28;;;10.72;100.00
58534;BME280;44109;52.398;7.024;2023-10-19T00:10:17;99328.59;;;10.74;100.00
58534;BME280;44109;52.398;7.024;2023-10-19T00:12:44;99314.75;;;10.67;100.00
58534;BME280;44109;52.398;7.024;2023-10-19T00:15:19;99314.81;;;10.63;100.00
58534;BME280;44109;52.398;7.024;2023-10-19T00:17:51;99311.97;;;10.67;100.00
58534;BME280;44109;52.398;7.024;2023-10-19T00:20:21;99319.06;;;10.75;100.00
58534;BME280;44109;52.398;7.024;2023-10-19T00:23:03;99316.69;;;10.77;100.00
58534;BME280;44109;52.398;7.024;2023-10-19T00:25:33;99310.28;;;10.84;100.00
58534;BME280;44109;52.398;7.024;2023-10-19T00:28:00;99308.81;;;10.69;100.00
58534;BME280;44109;52.398;7.024;2023-10-19T00:30:30;99300.84;;;10.78;100.00
58534;BME280;44109;52.398;7.024;2023-10-19T00:32:58;99297.28;;;10.77;100.00
58534;BME280;44109;52.398;7.024;2023-10-19T00:35:30;99293.63;;;10.84;100.00
58534;BME280;44109;52.398;7.024;2023-10-19T00:38:02;99288.50;;;10.86;100.00
58534;BME280;44109;52.398;7.024;2023-10-19T00:40:54;99282.53;;;10.87;100.00
58534;BME280;44109;52.398;7.024;2023-10-19T00:43:26;99291.19;;;10.93;100.00
58534;BME280;44109;52.398;7.024;2023-10-19T00:45:59;99290.41;;;10.92;100.00
58534;BME280;44109;52.398;7.024;2023-10-19T00:48:29;99288.50;;;10.82;100.00
58534;BME280;44109;52.398;7.024;2023-10-19T00:50:58;99278.56;;;10.85;100.00
58534;BME280;44109;52.398;7.024;2023-10-19T00:53:37;99268.22;;;10.89;100.00
58534;BME280;44109;52.398;7.024;2023-10-19T00:56:08;99269.06;;;10.86;100.00
58534;BME280;44109;52.398;7.024;2023-10-19T00:58:37;99273.44;;;10.83;100.00
58534;BME280;44109;52.398;7.024;2023-10-19T01:01:07;99266.66;;;10.88;100.00
58534;BME280;44109;52.398;7.024;2023-10-19T01:03:36;99256.34;;;10.88;100.00
58534;BME280;44109;52.398;7.024;2023-10-19T01:06:04;99261.13;;;10.84;100.00
58534;BME280;44109;52.398;7.024;2023-10-19T01:08:39;99259.47;;;10.94;100.00
58534;BME280;44109;52.398;7.024;2023-10-19T01:11:12;99246.41;;;10.95;100.00
58534;BME280;44109;52.398;7.024;2023-10-19T01:13:41;99249.13;;;10.98;100.00
58534;BME280;44109;52.398;7.024;2023-10-19T01:16:12;99249.53;;;10.97;100.00
58534;BME280;44109;52.398;7.024;2023-10-19T01:18:50;99252.31;;;10.97;100.00
58534;BME280;44109;52.398;7.024;2023-10-19T01:21:21;99246.06;;;10.85;100.00
58534;BME280;44109;52.398;7.024;2023-10-19T01:23:54;99242.13;;;10.83;100.00
58534;BME280;44109;52.398;7.024;2023-10-19T01:26:22;99238.13;;;10.91;100.00
58534;BME280;44109;52.398;7.024;2023-10-19T01:28:52;99219.97;;;10.79;100.00
58534;BME280;44109;52.398;7.024;2023-10-19T01:31:27;99225.38;;;10.93;100.00
58534;BME280;44109;52.398;7.024;2023-10-19T01:34:04;99228.56;;;10.96;100.00
58534;BME280;44109;52.398;7.024;2023-10-19T01:36:32;99219.09;;;10.89;100.00
58534;BME280;44109;52.398;7.024;2023-10-19T01:39:09;99222.22;;;10.95;100.00
58534;BME280;44109;52.398;7.024;2023-10-19T01:41:37;99215.50;;;10.92;100.00
58534;BME280;44109;52.398;7.024;2023-10-19T01:44:07;99216.72;;;10.88;100.00
58534;BME280;44109;52.398;7.024;2023-10-19T01:46:34;99205.97;;;10.93;100.00
58534;BME280;44109;52.398;7.024;2023-10-19T01:49:03;99206.72;;;10.98;100.00
58534;BME280;44109;52.398;7.024;2023-10-19T01:51:32;99205.50;;;11.02;100.00
58534;BME280;44109;52.398;7.024;2023-10-19T01:54:05;99191.66;;;10.99;100.00
58534;BME280;44109;52.398;7.024;2023-10-19T01:56:35;99203.16;;;10.97;100.00
58534;BME280;44109;52.398;7.024;2023-10-19T01:59:04;99203.88;;;11.05;100.00
58534;BME280;44109;52.398;7.024;2023-10-19T02:01:32;99195.97;;;11.03;100.00
58534;BME280;44109;52.398;7.024;2023-10-19T02:04:01;99183.03;;;10.89;100.00
58534;BME280;44109;52.398;7.024;2023-10-19T02:06:31;99199.97;;;10.99;100.00
58534;BME280;44109;52.398;7.024;2023-10-19T02:09:03;99199.66;;;10.89;100.00
58534;BME280;44109;52.398;7.024;2023-10-19T02:11:36;99206.38;;;10.96;100.00
58534;BME280;44109;52.398;7.024;2023-10-19T02:14:08;99201.50;;;11.03;100.00
58534;BME280;44109;52.398;7.024;2023-10-19T02:16:40;99195.94;;;11.07;100.00
58534;BME280;44109;52.398;7.024;2023-10-19T02:19:09;99186.81;;;11.06;100.00
58534;BME280;44109;52.398;7.024;2023-10-19T02:21:36;99187.22;;;11.08;100.00
58534;BME280;44109;52.398;7.024;2023-10-19T02:24:06;99172.09;;;11.13;100.00
58534;BME280;44109;52.398;7.024;2023-10-19T02:26:34;99182.44;;;11.09;100.00
58534;BME280;44109;52.398;7.024;2023-10-19T02:29:04;99194.81;;;11.01;100.00
58534;BME280;44109;52.398;7.024;2023-10-19T02:31:35;99174.59;;;11.00;100.00
58534;BME280;44109;52.398;7.024;2023-10-19T02:34:06;99174.34;;;10.87;100.00
58534;BME280;44109;52.398;7.024;2023-10-19T02:36:35;99169.75;;;11.08;100.00
58534;BME280;44109;52.398;7.024;2023-10-19T02:39:05;99167.69;;;11.15;100.00
58534;BME280;44109;52.398;7.024;2023-10-19T02:41:34;99169.66;;;11.18;100.00
58534;BME280;44109;52.398;7.024;2023-10-19T02:44:07;99164.00;;;11.26;100.00
58534;BME280;44109;52.398;7.024;2023-10-19T02:46:35;99162.00;;;11.26;100.00
58534;BME280;44109;52.398;7.024;2023-10-19T02:49:07;99155.28;;;11.27;100.00
58534;BME280;44109;52.398;7.024;2023-10-19T02:51:37;99158.38;;;11.33;100.00
58534;BME280;44109;52.398;7.024;2023-10-19T02:54:06;99156.41;;;11.30;100.00
58534;BME280;44109;52.398;7.024;2023-10-19T02:56:34;99132.41;;;11.16;100.00
58534;BME280;44109;52.398;7.024;2023-10-19T02:59:05;99127.88;;;11.29;100.00
58534;BME280;44109;52.398;7.024;2023-10-19T03:01:32;99127.06;;;11.32;100.00
58534;BME280;44109;52.398;7.024;2023-10-19T03:04:01;99135.28;;;11.39;100.00
58534;BME280;44109;52.398;7.024;2023-10-19T03:06:31;99142.97;;;11.28;100.00
58534;BME280;44109;52.398;7.024;2023-10-19T03:09:03;99129.84;;;11.32;100.00
58534;BME280;44109;52.398;7.024;2023-10-19T03:11:39;99122.66;;;11.35;100.00
58534;BME280;44109;52.398;7.024;2023-10-19T03:14:09;99137.91;;;11.20;100.00
58534;BME280;44109;52.398;7.024;2023-10-19T03:16:38;99101.38;;;11.25;100.00
58534;BME280;44109;52.398;7.024;2023-10-19T03:19:08;99120.22;;;11.40;100.00
58534;BME280;44109;52.398;7.024;2023-10-19T03:21:35;99130.91;;;11.42;100.00
58534;BME280;44109;52.398;7.024;2023-10-19T03:24:09;99124.56;;;11.41;100.00
58534;BME280;44109;52.398;7.024;2023-10-19T03:26:39;99124.56;;;11.41;100.00
58534;BME280;44109;52.398;7.024;2023-10-19T03:29:16;99120.84;;;11.52;100.00
58534;BME280;44109;52.398;7.024;2023-10-19T03:31:49;99123.16;;;11.57;100.00
58534;BME280;44109;52.398;7.024;2023-10-19T03:34:16;99105.97;;;11.65;100.00
58534;BME280;44109;52.398;7.024;2023-10-19T03:36:44;99118.75;;;11.59;100.00
58534;BME280;44109;52.398;7.024;2023-10-19T03:39:12;99108.25;;;11.43;100.00
58534;BME280;44109;52.398;7.024;2023-10-19T03:41:40;99114.66;;;11.40;100.00
58534;BME280;44109;52.398;7.024;2023-10-19T03:44:10;99119.16;;;11.58;100.00
58534;BME280;44109;52.398;7.024;2023-10-19T03:46:51;99099.84;;;11.51;100.00
58534;BME280;44109;52.398;7.024;2023-10-19T03:49:23;99106.41;;;11.64;100.00
58534;BME280;44109;52.398;7.024;2023-10-19T03:51:56;99100.72;;;11.71;100.00
58534;BME280;44109;52.398;7.024;2023-10-19T03:54:28;99106.28;;;11.71;100.00
58534;BME280;44109;52.398;7.024;2023-10-19T03:56:59;99097.69;;;11.62;100.00
58534;BME280;44109;52.398;7.024;2023-10-19T03:59:32;99091.56;;;11.74;100.00
58534;BME280;44109;52.398;7.024;2023-10-19T04:02:01;99093.44;;;11.81;100.00
58534;BME280;44109;52.398;7.024;2023-10-19T04:04:35;99087.81;;;11.88;100.00
58534;BME280;44109;52.398;7.024;2023-10-19T04:07:04;99085.97;;;11.78;100.00
58534;BME280;44109;52.398;7.024;2023-10-19T04:09:37;99093.41;;;11.84;100.00
58534;BME280;44109;52.398;7.024;2023-10-19T04:12:22;99085.47;;;11.86;100.00
58534;BME280;44109;52.398;7.024;2023-10-19T04:14:50;99090.06;;;11.97;100.00
58534;BME280;44109;52.398;7.024;2023-10-19T04:17:20;99090.81;;;12.01;100.00
58534;BME280;44109;52.398;7.024;2023-10-19T04:19:49;99093.09;;;12.06;100.00
58534;BME280;44109;52.398;7.024;2023-10-19T04:22:19;99087.84;;;12.11;100.00
58534;BME280;44109;52.398;7.024;2023-10-19T04:24:50;99081.88;;;12.13;100.00
58534;BME280;44109;52.398;7.024;2023-10-19T04:27:18;99086.56;;;12.16;100.00
58534;BME280;44109;52.398;7.024;2023-10-19T04:29:49;99081.00;;;12.16;100.00
58534;BME280;44109;52.398;7.024;2023-10-19T04:32:16;99067.50;;;12.18;100.00
58534;BME280;44109;52.398;7.024;2023-10-19T04:34:52;99076.56;;;12.22;100.00
58534;BME280;44109;52.398;7.024;2023-10-19T04:37:20;99072.91;;;12.25;100.00
58534;BME280;44109;52.398;7.024;2023-10-19T04:39:50;99087.19;;;12.27;100.00
58534;BME280;44109;52.398;7.024;2023-10-19T04:42:17;99082.34;;;12.31;100.00
58534;BME280;44109;52.398;7.024;2023-10-19T04:44:48;99081.19;;;12.29;100.00
58534;BME280;44109;52.398;7.024;2023-10-19T04:47:17;99072.75;;;12.36;100.00
58534;BME280;44109;52.398;7.024;2023-10-19T04:49:44;99078.31;;;12.36;100.00
58534;BME280;44109;52.398;7.024;2023-10-19T04:52:13;99079.94;;;12.33;100.00
58534;BME280;44109;52.398;7.024;2023-10-19T04:54:41;99077.88;;;12.37;100.00
58534;BME280;44109;52.398;7.024;2023-10-19T04:57:09;99067.09;;;12.39;100.00
58534;BME280;44109;52.398;7.024;2023-10-19T04:59:36;99067.91;;;12.40;100.00
58534;BME280;44109;52.398;7.024;2023-10-19T05:02:04;99066.25;;;12.42;100.00
58534;BME280;44109;52.398;7.024;2023-10-19T05:04:32;99067.09;;;12.39;100.00
58534;BME280;44109;52.398;7.024;2023-10-19T05:07:01;99065.41;;;12.46;100.00
58534;BME280;44109;52.398;7.024;2023-10-19T05:09:31;99058.63;;;12.47;100.00
58534;BME280;44109;52.398;7.024;2023-10-19T05:11:59;99061.94;;;12.61;100.00
58534;BME280;44109;52.398;7.024;2023-10-19T05:14:27;99064.59;;;12.68;100.00
58534;BME280;44109;52.398;7.024;2023-10-19T05:16:55;99055.81;;;12.70;100.00
58534;BME280;44109;52.398;7.024;2023-10-19T05:19:22;99056.97;;;12.73;100.00
58534;BME280;44109;52.398;7.024;2023-10-19T05:21:50;99053.81;;;12.70;100.00
58534;BME280;44109;52.398;7.024;2023-10-19T05:24:18;99049.53;;;12.66;100.00
58534;BME280;44109;52.398;7.024;2023-10-19T05:26:47;99054.09;;;12.76;100.00
58534;BME280;44109;52.398;7.024;2023-10-19T05:29:15;99045.63;;;12.83;100.00
58534;BME280;44109;52.398;7.024;2023-10-19T05:31:43;99049.56;;;12.86;100.00
58534;BME280;44109;52.398;7.024;2023-10-19T05:34:10;99047.19;;;12.84;100.00
58534;BME280;44109;52.398;7.024;2023-10-19T05:36:38;99058.19;;;12.91;100.00
58534;BME280;44109;52.398;7.024;2023-10-19T05:39:07;99069.59;;;12.97;100.00
58534;BME280;44109;52.398;7.024;2023-10-19T05:41:34;99059.16;;;13.01;100.00
58534;BME280;44109;52.398;7.024;2023-10-19T05:44:04;99056.66;;;13.07;100.00
58534;BME280;44109;52.398;7.024;2023-10-19T05:46:32;99060.16;;;13.11;100.00
58534;BME280;44109;52.398;7.024;2023-10-19T05:48:59;99067.66;;;13.14;100.00
58534;BME280;44109;52.398;7.024;2023-10-19T05:51:29;99068.38;;;13.18;100.00
58534;BME280;44109;52.398;7.024;2023-10-19T05:53:57;99068.72;;;13.20;100.00
58534;BME280;44109;52.398;7.024;2023-10-19T05:56:29;99067.13;;;13.23;100.00
58534;BME280;44109;52.398;7.024;2023-10-19T05:58:57;99076.72;;;13.18;100.00
58534;BME280;44109;52.398;7.024;2023-10-19T06:01:26;99081.31;;;13.28;100.00
58534;BME280;44109;52.398;7.024;2023-10-19T06:03:54;99082.09;;;13.29;100.00
58534;BME280;44109;52.398;7.024;2023-10-19T06:06:22;99081.66;;;13.30;100.00
58534;BME280;44109;52.398;7.024;2023-10-19T06:08:50;99097.50;;;13.33;100.00
58534;BME280;44109;52.398;7.024;2023-10-19T06:11:19;99087.94;;;13.34;100.00
58534;BME280;44109;52.398;7.024;2023-10-19T06:13:47;99092.66;;;13.37;100.00
58534;BME280;44109;52.398;7.024;2023-10-19T06:16:14;99098.94;;;13.41;100.00
58534;BME280;44109;52.398;7.024;2023-10-19T06:18:44;99099.28;;;13.43;100.00
58534;BME280;44109;52.398;7.024;2023-10-19T06:21:12;99107.63;;;13.43;100.00
58534;BME280;44109;52.398;7.024;2023-10-19T06:23:45;99109.56;;;13.47;100.00
58534;BME280;44109;52.398;7.024;2023-10-19T06:26:13;99105.50;;;13.51;100.00
58534;BME280;44109;52.398;7.024;2023-10-19T06:28:40;99106.97;;;13.56;100.00
58534;BME280;44109;52.398;7.024;2023-10-19T06:31:08;99106.47;;;13.61;100.00
58534;BME280;44109;52.398;7.024;2023-10-19T06:33:36;99109.19;;;13.64;100.00
58534;BME280;44109;52.398;7.024;2023-10-19T06:36:08;99110.66;;;13.69;100.00
58534;BME280;44109;52.398;7.024;2023-10-19T06:38:36;99107.44;;;13.70;100.00
58534;BME280;44109;52.398;7.024;2023-10-19T06:41:10;99111.38;;;13.73;100.00
58534;BME280;44109;52.398;7.024;2023-10-19T06:43:39;99115.22;;;13.79;100.00
58534;BME280;44109;52.398;7.024;2023-10-19T06:46:08;99113.13;;;13.83;100.00
58534;BME280;44109;52.398;7.024;2023-10-19T06:48:37;99107.91;;;13.85;100.00
58534;BME280;44109;52.398;7.024;2023-10-19T06:51:05;99122.19;;;13.87;100.00
58534;BME280;44109;52.398;7.024;2023-10-19T06:53:34;99117.47;;;13.84;100.00
58534;BME280;44109;52.398;7.024;2023-10-19T06:56:02;99131.34;;;13.88;100.00
58534;BME280;44109;52.398;7.024;2023-10-19T06:58:30;99126.91;;;13.90;100.00
58534;BME280;44109;52.398;7.024;2023-10-19T07:00:58;99132.38;;;13.94;100.00
58534;BME280;44109;52.398;7.024;2023-10-19T07:03:31;99138.78;;;13.94;100.00
58534;BME280;44109;52.398;7.024;2023-10-19T07:05:59;99139.88;;;13.97;100.00
58534;BME280;44109;52.398;7.024;2023-10-19T07:08:28;99127.16;;;13.96;100.00
58534;BME280;44109;52.398;7.024;2023-10-19T07:10:57;99140.59;;;14.01;100.00
58534;BME280;44109;52.398;7.024;2023-10-19T07:13:26;99138.94;;;14.04;100.00
58534;BME280;44109;52.398;7.024;2023-10-19T07:15:53;99138.50;;;14.05;100.00
58534;BME280;44109;52.398;7.024;2023-10-19T07:18:21;99140.16;;;14.03;100.00
58534;BME280;44109;52.398;7.024;2023-10-19T07:20:49;99138.59;;;14.02;100.00
58534;BME280;44109;52.398;7.024;2023-10-19T07:23:18;99144.16;;;14.02;100.00
58534;BME280;44109;52.398;7.024;2023-10-19T07:25:48;99142.59;;;14.01;100.00
58534;BME280;44109;52.398;7.024;2023-10-19T07:28:22;99130.75;;;13.96;100.00
58534;BME280;44109;52.398;7.024;2023-10-19T07:30:52;99140.06;;;14.06;100.00
58534;BME280;44109;52.398;7.024;2023-10-19T07:33:20;99139.63;;;14.08;100.00
58534;BME280;44109;52.398;7.024;2023-10-19T07:35:49;99141.94;;;14.13;100.00
58534;BME280;44109;52.398;7.024;2023-10-19T07:38:21;99139.63;;;14.08;100.00
58534;BME280;44109;52.398;7.024;2023-10-19T07:40:49;99148.63;;;14.15;100.00
58534;BME280;44109;52.398;7.024;2023-10-19T07:43:18;99147.69;;;14.22;100.00
58534;BME280;44109;52.398;7.024;2023-10-19T07:45:48;99140.19;;;14.19;100.00
58534;BME280;44109;52.398;7.024;2023-10-19T07:48:15;99147.56;;;14.26;100.00
58534;BME280;44109;52.398;7.024;2023-10-19T07:50:43;99147.41;;;14.33;100.00
58534;BME280;44109;52.398;7.024;2023-10-19T07:53:11;99145.78;;;14.35;100.00
58534;BME280;44109;52.398;7.024;2023-10-19T07:55:39;99148.91;;;14.37;100.00
58534;BME280;44109;52.398;7.024;2023-10-19T07:58:08;99140.53;;;14.37;100.00
58534;BME280;44109;52.398;7.024;2023-10-19T08:00:37;99148.81;;;14.41;100.00
58534;BME280;44109;52.398;7.024;2023-10-19T08:03:08;99151.84;;;14.46;100.00
58534;BME280;44109;52.398;7.024;2023-10-19T08:05:36;99154.50;;;14.54;100.00
58534;BME280;44109;52.398;7.024;2023-10-19T08:08:04;99148.41;;;14.59;100.00
58534;BME280;44109;52.398;7.024;2023-10-19T08:10:32;99151.88;;;14.63;100.00
58534;BME280;44109;52.398;7.024;2023-10-19T08:13:01;99156.94;;;14.68;100.00
58534;BME280;44109;52.398;7.024;2023-10-19T08:15:28;99162.41;;;14.71;100.00
58534;BME280;44109;52.398;7.024;2023-10-19T08:17:57;99158.81;;;14.71;100.00
58534;BME280;44109;52.398;7.024;2023-10-19T08:20:25;99148.72;;;14.77;100.00
58534;BME280;44109;52.398;7.024;2023-10-19T08:22:57;99161.34;;;14.82;100.00
58534;BME280;44109;52.398;7.024;2023-10-19T08:25:27;99145.84;;;14.81;100.00
58534;BME280;44109;52.398;7.024;2023-10-19T08:27:55;99155.47;;;14.92;100.00
58534;BME280;44109;52.398;7.024;2023-10-19T08:30:24;99153.06;;;14.94;100.00
58534;BME280;44109;52.398;7.024;2023-10-19T08:32:52;99154.06;;;15.01;100.00
58534;BME280;44109;52.398;7.024;2023-10-19T08:35:22;99159.91;;;15.06;100.00
58534;BME280;44109;52.398;7.024;2023-10-19T08:37:51;99164.84;;;15.15;100.00
58534;BME280;44109;52.398;7.024;2023-10-19T08:40:19;99166.56;;;15.25;100.00
58534;BME280;44109;52.398;7.024;2023-10-19T08:42:49;99165.50;;;15.35;100.00
58534;BME280;44109;52.398;7.024;2023-10-19T08:45:17;99169.22;;;15.45;100.00
58534;BME280;44109;52.398;7.024;2023-10-19T08:47:52;99167.66;;;15.57;100.00
58534;BME280;44109;52.398;7.024;2023-10-19T08:50:24;99172.28;;;15.63;100.00
58534;BME280;44109;52.398;7.024;2023-10-19T08:52:53;99161.81;;;15.67;100.00
58534;BME280;44109;52.398;7.024;2023-10-19T08:55:23;99158.88;;;15.71;100.00
58534;BME280;44109;52.398;7.024;2023-10-19T08:57:52;99157.53;;;15.76;100.00
58534;BME280;44109;52.398;7.024;2023-10-19T09:00:20;99151.28;;;15.84;100.00
58534;BME280;44109;52.398;7.024;2023-10-19T09:02:51;99145.50;;;15.91;100.00
58534;BME280;44109;52.398;7.024;2023-10-19T09:05:19;99149.38;;;15.94;100.00
58534;BME280;44109;52.398;7.024;2023-10-19T09:07:50;99155.56;;;16.02;100.00
58534;BME280;44109;52.398;7.024;2023-10-19T09:10:20;99155.00;;;16.07;100.00
58534;BME280;44109;52.398;7.024;2023-10-19T09:12:59;99153.22;;;16.13;100.00
58534;BME280;44109;52.398;7.024;2023-10-19T09:15:29;99158.25;;;16.18;100.00
58534;BME280;44109;52.398;7.024;2023-10-19T09:17:59;99160.47;;;16.23;100.00
58534;BME280;44109;52.398;7.024;2023-10-19T09:20:40;99151.63;;;16.24;100.00
58534;BME280;44109;52.398;7.024;2023-10-19T09:23:20;99153.44;;;16.31;100.00
58534;BME280;44109;52.398;7.024;2023-10-19T09:25:49;99163.81;;;16.43;100.00
58534;BME280;44109;52.398;7.024;2023-10-19T09:28:18;99163.59;;;16.51;100.00
58534;BME280;44109;52.398;7.024;2023-10-19T09:30:46;99156.19;;;16.57;100.00
58534;BME280;44109;52.398;7.024;2023-10-19T09:33:14;99164.22;;;16.67;100.00
58534;BME280;44109;52.398;7.024;2023-10-19T09:35:45;99171.16;;;16.76;100.00
58534;BME280;44109;52.398;7.024;2023-10-19T09:38:16;99159.53;;;16.77;100.00
58534;BME280;44109;52.398;7.024;2023-10-19T09:40:49;99150.22;;;16.80;100.00
58534;BME280;44109;52.398;7.024;2023-10-19T09:43:22;99156.03;;;16.86;100.00
58534;BME280;44109;52.398;7.024;2023-10-19T09:46:00;99145.94;;;16.88;100.00
58534;BME280;44109;52.398;7.024;2023-10-19T09:48:28;99146.41;;;16.87;100.00
58534;BME280;44109;52.398;7.024;2023-10-19T09:51:02;99143.91;;;16.89;100.00
58534;BME280;44109;52.398;7.024;2023-10-19T09:53:31;99150.53;;;16.95;100.00
58534;BME280;44109;52.398;7.024;2023-10-19T09:56:01;99147.91;;;17.01;100.00
58534;BME280;44109;52.398;7.024;2023-10-19T09:58:35;99143.22;;;16.97;100.00
58534;BME280;44109;52.398;7.024;2023-10-19T10:01:06;99152.75;;;17.00;100.00
58534;BME280;44109;52.398;7.024;2023-10-19T10:03:45;99140.47;;;17.07;100.00
58534;BME280;44109;52.398;7.024;2023-10-19T10:06:15;99135.22;;;17.09;100.00
58534;BME280;44109;52.398;7.024;2023-10-19T10:08:46;99137.38;;;17.05;100.00
58534;BME280;44109;52.398;7.024;2023-10-19T10:11:18;99136.38;;;16.98;100.00
58534;BME280;44109;52.398;7.024;2023-10-19T10:13:49;99135.47;;;17.02;100.00
58534;BME280;44109;52.398;7.024;2023-10-19T10:16:18;99127.06;;;17.02;100.00
58534;BME280;44109;52.398;7.024;2023-10-19T10:18:50;99132.94;;;16.94;100.00
58534;BME280;44109;52.398;7.024;2023-10-19T10:21:22;99139.75;;;16.93;100.00
58534;BME280;44109;52.398;7.024;2023-10-19T10:23:53;99136.88;;;16.84;100.00
58534;BME280;44109;52.398;7.024;2023-10-19T10:26:23;99142.16;;;16.82;100.00
58534;BME280;44109;52.398;7.024;2023-10-19T10:29:08;99148.84;;;16.85;100.00
58534;BME280;44109;52.398;7.024;2023-10-19T10:31:42;99143.41;;;16.81;100.00
58534;BME280;44109;52.398;7.024;2023-10-19T10:34:10;99148.06;;;16.84;100.00
58534;BME280;44109;52.398;7.024;2023-10-19T10:36:59;99137.66;;;16.85;100.00
58534;BME280;44109;52.398;7.024;2023-10-19T10:39:29;99144.94;;;16.82;100.00
58534;BME280;44109;52.398;7.024;2023-10-19T10:41:59;99141.25;;;16.85;100.00
58534;BME280;44109;52.398;7.024;2023-10-19T10:44:47;99135.31;;;16.83;100.00
58534;BME280;44109;52.398;7.024;2023-10-19T10:47:19;99145.41;;;16.81;100.00
58534;BME280;44109;52.398;7.024;2023-10-19T10:49:49;99141.81;;;16.80;100.00
58534;BME280;44109;52.398;7.024;2023-10-19T10:52:29;99136.22;;;16.80;100.00
58534;BME280;44109;52.398;7.024;2023-10-19T10:54:58;99138.47;;;16.85;100.00
58534;BME280;44109;52.398;7.024;2023-10-19T10:57:39;99123.28;;;16.95;100.00
58534;BME280;44109;52.398;7.024;2023-10-19T11:00:09;99127.41;;;17.04;100.00
58534;BME280;44109;52.398;7.024;2023-10-19T11:02:42;99135.22;;;17.09;100.00
58534;BME280;44109;52.398;7.024;2023-10-19T11:05:12;99134.75;;;17.10;100.00
58534;BME280;44109;52.398;7.024;2023-10-19T11:07:41;99129.16;;;17.10;100.00
58534;BME280;44109;52.398;7.024;2023-10-19T11:10:30;99136.78;;;17.10;100.00
58534;BME280;44109;52.398;7.024;2023-10-19T11:13:01;99138.59;;;17.04;100.00
58534;BME280;44109;52.398;7.024;2023-10-19T11:15:29;99139.38;;;17.04;100.00
58534;BME280;44109;52.398;7.024;2023-10-19T11:17:57;99140.59;;;17.03;100.00
58534;BME280;44109;52.398;7.024;2023-10-19T11:20:26;99141.59;;;17.09;100.00
58534;BME280;44109;52.398;7.024;2023-10-19T11:22:55;99151.50;;;17.23;100.00
58534;BME280;44109;52.398;7.024;2023-10-19T11:25:27;99155.47;;;17.35;100.00
58534;BME280;44109;52.398;7.024;2023-10-19T11:27:57;99145.44;;;17.46;100.00
58534;BME280;44109;52.398;7.024;2023-10-19T11:30:28;99151.44;;;17.58;100.00
58534;BME280;44109;52.398;7.024;2023-10-19T11:32:58;99146.41;;;17.74;100.00
58534;BME280;44109;52.398;7.024;2023-10-19T11:35:28;99151.63;;;17.85;100.00
58534;BME280;44109;52.398;7.024;2023-10-19T11:37:59;99150.69;;;17.88;100.00
58534;BME280;44109;52.398;7.024;2023-10-19T11:40:28;99136.88;;;18.03;100.00
58534;BME280;44109;52.398;7.024;2023-10-19T11:42:56;99142.81;;;18.05;100.00
58534;BME280;44109;52.398;7.024;2023-10-19T11:45:27;99135.72;;;18.22;100.00
58534;BME280;44109;52.398;7.024;2023-10-19T11:47:56;99127.34;;;18.41;100.00
58534;BME280;44109;52.398;7.024;2023-10-19T11:50:24;99117.84;;;18.47;100.00
58534;BME280;44109;52.398;7.024;2023-10-19T11:52:51;99112.38;;;18.44;100.00
58534;BME280;44109;52.398;7.024;2023-10-19T11:55:19;99100.75;;;18.14;100.00
58534;BME280;44109;52.398;7.024;2023-10-19T11:57:47;99093.47;;;18.17;100.00
58534;BME280;44109;52.398;7.024;2023-10-19T12:00:15;99094.72;;;18.34;100.00
58534;BME280;44109;52.398;7.024;2023-10-19T12:02:49;99097.75;;;18.49;100.00
58534;BME280;44109;52.398;7.024;2023-10-19T12:05:18;99093.34;;;18.57;100.00
58534;BME280;44109;52.398;7.024;2023-10-19T12:07:45;99098.88;;;18.70;100.00
58534;BME280;44109;52.398;7.024;2023-10-19T12:10:13;99087.31;;;18.68;100.00
58534;BME280;44109;52.398;7.024;2023-10-19T12:12:41;99083.84;;;18.55;100.00
58534;BME280;44109;52.398;7.024;2023-10-19T12:15:09;99088.69;;;18.54;100.00
58534;BME280;44109;52.398;7.024;2023-10-19T12:17:38;99089.34;;;18.67;100.00
58534;BME280;44109;52.398;7.024;2023-10-19T12:20:07;99080.47;;;18.78;100.00
58534;BME280;44109;52.398;7.024;2023-10-19T12:22:35;99073.72;;;18.85;100.00
58534;BME280;44109;52.398;7.024;2023-10-19T12:25:05;99060.50;;;18.94;100.00
58534;BME280;44109;52.398;7.024;2023-10-19T12:27:33;99056.72;;;18.88;100.00
58534;BME280;44109;52.398;7.024;2023-10-19T12:30:05;99043.91;;;19.06;100.00
58534;BME280;44109;52.398;7.024;2023-10-19T12:32:43;99038.31;;;18.96;100.00
58534;BME280;44109;52.398;7.024;2023-10-19T12:35:12;99035.50;;;18.60;100.00
58534;BME280;44109;52.398;7.024;2023-10-19T12:37:40;99033.31;;;18.55;100.00
58534;BME280;44109;52.398;7.024;2023-10-19T12:40:12;99046.72;;;18.60;100.00
58534;BME280;44109;52.398;7.024;2023-10-19T12:42:52;99055.78;;;18.55;100.00
58534;BME280;44109;52.398;7.024;2023-10-19T12:45:21;99064.81;;;18.49;100.00
58534;BME280;44109;52.398;7.024;2023-10-19T12:47:48;99060.91;;;18.47;100.00
58534;BME280;44109;52.398;7.024;2023-10-19T12:50:19;99053.59;;;18.40;100.00
58534;BME280;44109;52.398;7.024;2023-10-19T12:52:49;99042.97;;;18.44;100.00
58534;BME280;44109;52.398;7.024;2023-10-19T12:55:17;99031.75;;;18.54;100.00
58534;BME280;44109;52.398;7.024;2023-10-19T12:57:45;99034.88;;;18.56;100.00
58534;BME280;44109;52.398;7.024;2023-10-19T13:00:14;99030.78;;;18.57;100.00
58534;BME280;44109;52.398;7.024;2023-10-19T13:02:52;99020.19;;;18.51;100.00
58534;BME280;44109;52.398;7.024;2023-10-19T13:05:27;99014.91;;;18.63;100.00